createdAt,value
2023-05-19T00:00:19.458Z,1024.932373
2023-05-19T00:05:19.522Z,1024.905152
2023-05-19T00:10:19.313Z,1024.860725
2023-05-19T00:15:19.701Z,1024.857590
2023-05-19T00:20:19.376Z,1024.849533
2023-05-19T00:25:19.512Z,1024.821636
2023-05-19T00:30:19.847Z,1024.818519
2023-05-19T00:35:19.339Z,1024.803357
2023-05-19T00:40:19.263Z,1024.757182
2023-05-19T00:45:19.362Z,1024.749697
2023-05-19T00:50:19.629Z,1024.685554
2023-05-19T00:55:19.268Z,1024.622364
2023-05-19T01:00:19.519Z,1024.585884
2023-05-19T01:05:19.286Z,1024.538832
2023-05-19T01:10:19.502Z,1024.515810
2023-05-19T01:15:19.309Z,1024.592303
2023-05-19T01:20:19.684Z,1024.596208
2023-05-19T01:25:19.546Z,1024.604077
2023-05-19T01:30:16.969Z,1024.662755
2023-05-19T01:35:16.992Z,1024.617418
2023-05-19T01:40:16.929Z,1024.606398
2023-05-19T01:45:17.102Z,1024.611907
2023-05-19T01:50:16.946Z,1024.579474
2023-05-19T01:55:17.210Z,1024.520876
2023-05-19T02:00:18.177Z,1024.556190
2023-05-19T02:05:16.975Z,1024.535536
2023-05-19T02:10:16.919Z,1024.548326
2023-05-19T02:15:16.944Z,1024.561554
2023-05-19T02:20:17.107Z,1024.548170
2023-05-19T02:25:17.282Z,1024.525705
2023-05-19T02:30:16.862Z,1024.475108
2023-05-19T02:35:16.879Z,1024.494575
2023-05-19T02:40:17.031Z,1024.467653
2023-05-19T02:45:16.751Z,1024.413488
2023-05-19T02:50:16.880Z,1024.402452
2023-05-19T02:55:17.142Z,1024.384158
2023-05-19T03:00:16.927Z,1024.329468
2023-05-19T03:05:16.827Z,1024.268786
2023-05-19T03:10:16.797Z,1024.304823
2023-05-19T03:15:16.841Z,1024.313925
2023-05-19T03:20:16.830Z,1024.369299
2023-05-19T03:25:17.128Z,1024.402921
2023-05-19T03:30:16.910Z,1024.364278
2023-05-19T03:35:16.865Z,1024.358204
2023-05-19T03:40:16.862Z,1024.370117
2023-05-19T03:45:16.761Z,1024.451630
2023-05-19T03:50:16.961Z,1024.482585
2023-05-19T03:55:16.755Z,1024.523687
2023-05-19T04:00:16.867Z,1024.523643
2023-05-19T04:05:17.235Z,1024.555026
2023-05-19T04:10:17.360Z,1024.559457
2023-05-19T04:15:17.006Z,1024.497998
2023-05-19T04:20:17.131Z,1024.479743
2023-05-19T04:25:17.536Z,1024.579016
2023-05-19T04:30:18.445Z,1024.659060
2023-05-19T04:35:19.441Z,1024.706685
2023-05-19T04:40:19.581Z,1024.810921
2023-05-19T04:45:19.778Z,1024.762711
2023-05-19T04:50:19.424Z,1024.699514
2023-05-19T04:55:19.431Z,1024.614558
2023-05-19T05:00:19.444Z,1024.600587
2023-05-19T05:05:19.405Z,1024.615815
2023-05-19T05:10:20.120Z,1024.627789
2023-05-19T05:15:19.628Z,1024.638721
2023-05-19T05:20:19.729Z,1024.638124
2023-05-19T05:25:19.485Z,1024.645582
2023-05-19T05:30:19.190Z,1024.644985
2023-05-19T05:35:19.896Z,1024.616225
2023-05-19T05:40:19.307Z,1024.694608
2023-05-19T05:45:19.719Z,1024.668804
2023-05-19T05:50:19.416Z,1024.673801
2023-05-19T05:55:19.259Z,1024.616176
2023-05-19T06:00:19.557Z,1024.626559
2023-05-19T06:05:19.229Z,1024.685702
2023-05-19T06:10:19.212Z,1024.739070
2023-05-19T06:15:19.326Z,1024.747726
2023-05-19T06:20:19.474Z,1024.676557
2023-05-19T06:25:19.428Z,1024.680010
2023-05-19T06:30:19.300Z,1024.638930
2023-05-19T06:35:19.379Z,1024.588490
2023-05-19T06:40:19.932Z,1024.567757
2023-05-19T06:45:19.324Z,1024.574522
2023-05-19T06:50:19.410Z,1024.579512
2023-05-19T06:55:20.056Z,1024.607327
2023-05-19T07:00:21.377Z,1024.556573
2023-05-19T07:05:19.618Z,1024.526888
2023-05-19T07:10:19.242Z,1024.420619
2023-05-19T07:15:19.372Z,1024.357407
2023-05-19T07:20:19.557Z,1024.346415
2023-05-19T07:25:19.462Z,1024.314685
2023-05-19T07:30:19.401Z,1024.224044
2023-05-19T07:35:19.198Z,1024.119530
2023-05-19T07:40:19.279Z,1024.026280
2023-05-19T07:45:16.758Z,1023.955545
2023-05-19T07:50:16.596Z,1023.998882
2023-05-19T07:55:16.793Z,1023.983725
2023-05-19T08:00:16.668Z,1023.974072
2023-05-19T08:05:16.881Z,1023.878273
2023-05-19T08:10:16.858Z,1023.854850
2023-05-19T08:15:16.799Z,1023.917670
2023-05-19T08:20:16.760Z,1023.965083
2023-05-19T08:25:16.859Z,1023.958022
2023-05-19T08:30:16.662Z,1023.940906
2023-05-19T08:35:16.702Z,1023.877192
2023-05-19T08:40:16.895Z,1023.793569
2023-05-19T08:45:16.924Z,1023.733354
2023-05-19T08:50:16.652Z,1023.713090
2023-05-19T08:55:16.779Z,1023.625498
2023-05-19T09:00:16.981Z,1023.595320
2023-05-19T09:05:16.873Z,1023.482716
2023-05-19T09:10:16.664Z,1023.415364
2023-05-19T09:15:16.688Z,1023.271864
2023-05-19T09:20:16.820Z,1023.205660
2023-05-19T09:25:16.710Z,1023.212414
2023-05-19T09:30:17.116Z,1023.298275
2023-05-19T09:35:16.671Z,1023.248874
2023-05-19T09:40:16.972Z,1023.149862
2023-05-19T09:45:16.836Z,1023.068172
2023-05-19T09:50:16.710Z,1023.023981
2023-05-19T09:55:16.992Z,1022.909995
2023-05-19T10:00:16.915Z,1022.906696
2023-05-19T10:05:17.249Z,1022.814318
2023-05-19T10:10:16.662Z,1022.860852
2023-05-19T10:15:16.914Z,1022.822889
2023-05-19T10:20:17.009Z,1022.791259
2023-05-19T10:25:16.727Z,1022.777740
2023-05-19T10:30:17.113Z,1022.686730
2023-05-19T10:35:16.623Z,1022.616069
2023-05-19T10:40:16.583Z,1022.593801
2023-05-19T10:45:16.910Z,1022.604927
2023-05-19T10:50:19.310Z,1022.558974
2023-05-19T10:55:19.265Z,1022.541628
2023-05-19T11:00:19.392Z,1022.609056
2023-05-19T11:05:19.436Z,1022.599050
2023-05-19T11:10:19.135Z,1022.572299
2023-05-19T11:15:19.025Z,1022.548858
2023-05-19T11:20:19.591Z,1022.543754
2023-05-19T11:25:19.605Z,1022.492347
2023-05-19T11:30:19.238Z,1022.392754
2023-05-19T11:35:19.347Z,1022.455783
2023-05-19T11:40:19.282Z,1022.421883
2023-05-19T11:45:19.158Z,1022.421593
2023-05-19T11:50:19.383Z,1022.332963
2023-05-19T11:55:19.366Z,1022.338280
2023-05-19T12:00:19.134Z,1022.245333
2023-05-19T12:05:19.642Z,1022.268814
2023-05-19T12:10:19.184Z,1022.277142
2023-05-19T12:15:19.123Z,1022.342922
2023-05-19T12:20:19.149Z,1022.303480
2023-05-19T12:25:19.468Z,1022.247808
2023-05-19T12:30:19.307Z,1022.123701
2023-05-19T12:35:19.196Z,1022.142987
2023-05-19T12:40:19.377Z,1022.206598
2023-05-19T12:45:19.115Z,1022.246658
2023-05-19T12:50:19.662Z,1022.250307
2023-05-19T12:55:19.194Z,1022.190440
2023-05-19T13:00:19.596Z,1021.994081
2023-05-19T13:05:19.605Z,1021.912190
2023-05-19T13:10:19.408Z,1022.053237
2023-05-19T13:15:19.152Z,1022.080206
2023-05-19T13:20:19.181Z,1022.029091
2023-05-19T13:25:19.275Z,1021.924462
2023-05-19T13:30:19.379Z,1021.919940
2023-05-19T13:35:19.177Z,1021.984568
2023-05-19T13:40:19.194Z,1021.988825
2023-05-19T13:45:19.584Z,1021.913434
2023-05-19T13:50:19.078Z,1021.874607
2023-05-19T13:55:19.298Z,1021.923181
2023-05-19T14:00:19.120Z,1021.788800
2023-05-19T14:05:16.738Z,1021.796376
2023-05-19T14:10:16.693Z,1021.753901
2023-05-19T14:15:16.608Z,1021.741554
2023-05-19T14:20:16.595Z,1021.779549
2023-05-19T14:25:16.779Z,1021.833253
2023-05-19T14:30:17.000Z,1021.802378
2023-05-19T14:35:16.539Z,1021.801109
2023-05-19T14:40:16.707Z,1021.812067
2023-05-19T14:45:16.569Z,1021.862109
2023-05-19T14:50:16.650Z,1021.911101
2023-05-19T14:55:16.563Z,1021.922249
2023-05-19T15:00:16.820Z,1021.846183
2023-05-19T15:05:16.706Z,1021.860654
2023-05-19T15:10:16.730Z,1021.960939
2023-05-19T15:15:16.891Z,1021.959832
2023-05-19T15:20:16.822Z,1022.005017
2023-05-19T15:25:16.815Z,1022.045049
2023-05-19T15:30:16.680Z,1022.077124
2023-05-19T15:35:16.828Z,1022.107264
2023-05-19T15:40:16.605Z,1021.995435
2023-05-19T15:45:16.638Z,1022.003889
2023-05-19T15:50:17.046Z,1022.012273
2023-05-19T15:55:16.879Z,1022.003626
2023-05-19T16:00:16.699Z,1022.069125
2023-05-19T16:05:16.970Z,1022.110033
2023-05-19T16:10:16.569Z,1022.093747
2023-05-19T16:15:16.813Z,1022.094029
2023-05-19T16:20:16.504Z,1022.049181
2023-05-19T16:25:16.604Z,1022.031836
2023-05-19T16:30:16.559Z,1022.051380
2023-05-19T16:35:16.813Z,1022.027750
2023-05-19T16:40:16.706Z,1022.065481
2023-05-19T16:45:16.603Z,1022.086769
2023-05-19T16:50:16.599Z,1022.042496
2023-05-19T16:55:16.545Z,1022.030770
2023-05-19T17:00:16.626Z,1022.012201
2023-05-19T17:05:16.552Z,1022.060931
2023-05-19T17:10:16.766Z,1022.108110
2023-05-19T17:15:16.551Z,1022.109934
2023-05-19T17:20:16.484Z,1022.096366
2023-05-19T17:25:16.651Z,1022.133305
2023-05-19T17:30:16.665Z,1022.192193
2023-05-19T17:35:16.690Z,1022.218872
2023-05-19T17:40:16.473Z,1022.250936
2023-05-19T17:45:16.771Z,1022.270162
2023-05-19T17:50:16.500Z,1022.359160
2023-05-19T17:55:16.963Z,1022.390968
2023-05-19T18:00:16.834Z,1022.443885
2023-05-19T18:05:16.769Z,1022.457665
2023-05-19T18:10:16.924Z,1022.446763
2023-05-19T18:15:16.879Z,1022.459841
2023-05-19T18:20:16.897Z,1022.424443
2023-05-19T18:25:16.736Z,1022.421259
2023-05-19T18:30:16.495Z,1022.465660
2023-05-19T18:35:16.789Z,1022.503274
2023-05-19T18:40:16.541Z,1022.520094
2023-05-19T18:45:16.482Z,1022.573353
2023-05-19T18:50:16.863Z,1022.589592
2023-05-19T18:55:16.458Z,1022.610426
2023-05-19T19:00:16.526Z,1022.705052
2023-05-19T19:05:16.482Z,1022.670425
2023-05-19T19:10:16.778Z,1022.677630
2023-05-19T19:15:16.560Z,1022.812131
2023-05-19T19:20:16.615Z,1022.891054
2023-05-19T19:25:16.719Z,1022.915869
2023-05-19T19:30:16.727Z,1023.005490
2023-05-19T19:35:16.806Z,1023.026211
2023-05-19T19:40:16.638Z,1022.977901
2023-05-19T19:45:16.522Z,1023.022359
2023-05-19T19:50:16.757Z,1023.032811
2023-05-19T19:55:16.718Z,1023.093545
2023-05-19T20:00:16.431Z,1023.061390
2023-05-19T20:05:16.496Z,1023.088585
2023-05-19T20:10:16.669Z,1023.101260
2023-05-19T20:15:16.480Z,1023.159615
2023-05-19T20:20:16.562Z,1023.096545
2023-05-19T20:25:17.273Z,1023.092768
2023-05-19T20:30:16.647Z,1023.048325
2023-05-19T20:35:16.337Z,1023.055464
2023-05-19T20:40:16.584Z,1023.012130
2023-05-19T20:45:16.968Z,1023.044031
2023-05-19T20:50:16.401Z,1023.005061
2023-05-19T20:55:16.565Z,1023.037971
2023-05-19T21:00:16.554Z,1023.073089
2023-05-19T21:05:16.519Z,1023.050626
2023-05-19T21:10:16.953Z,1023.042834
2023-05-19T21:15:16.685Z,1023.025357
2023-05-19T21:20:16.671Z,1023.039578
2023-05-19T21:25:16.583Z,1023.056311
2023-05-19T21:30:16.614Z,1023.072495
2023-05-19T21:35:16.678Z,1023.066810
2023-05-19T21:40:16.381Z,1023.071719
2023-05-19T21:45:16.601Z,1023.021558
2023-05-19T21:50:16.415Z,1023.010547
2023-05-19T21:55:16.525Z,1022.987564
2023-05-19T22:00:16.550Z,1023.036386
2023-05-19T22:05:16.605Z,1023.042897
2023-05-19T22:10:16.472Z,1023.020032
2023-05-19T22:15:16.600Z,1023.039133
2023-05-19T22:20:16.595Z,1023.069534
2023-05-19T22:25:16.504Z,1023.033358
2023-05-19T22:30:16.519Z,1022.990567
2023-05-19T22:35:16.443Z,1022.907733
2023-05-19T22:40:16.536Z,1022.859695
2023-05-19T22:45:16.511Z,1022.866804
2023-05-19T22:50:16.437Z,1022.878248
2023-05-19T22:55:16.676Z,1022.899354
2023-05-19T23:00:16.832Z,1022.889010
2023-05-19T23:05:16.482Z,1022.909559
2023-05-19T23:10:16.970Z,1022.895608
2023-05-19T23:15:16.787Z,1022.912905
2023-05-19T23:20:16.426Z,1022.873012
2023-05-19T23:25:16.609Z,1022.880864
2023-05-19T23:30:19.163Z,1022.891394
2023-05-19T23:35:18.876Z,1022.807348
2023-05-19T23:40:19.316Z,1022.738901
2023-05-19T23:45:19.162Z,1022.653928
2023-05-19T23:50:19.102Z,1022.531353
2023-05-19T23:55:19.162Z,1022.486380
